Huvudsida
METAR-TAF:

METAR-TAF

Flygplatser :

Heliport

Værøy, Norge

latitud: 67-39-16N, longitud: 12-43-37E, höjd: 5 m

Aktuellt väderrapport

Denna rapport gjordes för 2 timmar och 17 minuter sedan, klockan 05:50 UTC
Vind 6 kt från nord/nordväst, varierande mellan väst/nordväst och nord/nordost
Temperatur 1°C
Fuktighet 93%
Tryck 986 hPa
Sikt 10 km eller mer
Få moln på en höjd av 500 ft
Brutna moln på en höjd av 2900 ft
lätta regnskurar, snö

METAR: ENVR 230550Z 34006KT 300V030 9999 -SHRASN FEW005 BKN029 01/M00 Q0986

Tid: 10:07 (08:07 UTC)


TAF: saknas

Aktuella väderrapporter och prognoser från 4000 flygplatser (METAR- och TAF-rapporter).

De tillgängliga stationerna syns som gula och röda prickar på kartan.

För musen över prickarna för att se namnen på stationerna.

Klicka sedan för att få väderrapporter och prognoser.

För att ändra kartan: Klicka på de gröna knapparna med ett svart kors på för att zooma in; den gröna knappen med ett streck på för att zooma ut; eller på de gröna pilarna för angränsande kartor.


METAR-TAF: